sensor_id;sensor_type;location;lat;lon;timestamp;temperature;humidity
30764;DHT22;17497;51.476;7.770;2022-08-23T00:02:25;20.70;99.90
30764;DHT22;17497;51.476;7.770;2022-08-23T00:04:54;20.70;99.90
30764;DHT22;17497;51.476;7.770;2022-08-23T00:07:37;20.60;99.90
30764;DHT22;17497;51.476;7.770;2022-08-23T00:10:08;20.50;99.90
30764;DHT22;17497;51.476;7.770;2022-08-23T00:16:11;20.50;99.90
30764;DHT22;17497;51.476;7.770;2022-08-23T00:18:38;20.40;99.90
30764;DHT22;17497;51.476;7.770;2022-08-23T00:21:04;20.40;99.90
30764;DHT22;17497;51.476;7.770;2022-08-23T00:23:31;20.40;99.90
30764;DHT22;17497;51.476;7.770;2022-08-23T00:26:00;20.40;99.90
30764;DHT22;17497;51.476;7.770;2022-08-23T00:28:28;20.30;99.90
30764;DHT22;17497;51.476;7.770;2022-08-23T00:30:55;20.30;99.90
30764;DHT22;17497;51.476;7.770;2022-08-23T00:33:22;20.30;99.90
30764;DHT22;17497;51.476;7.770;2022-08-23T00:35:49;20.20;99.90
30764;DHT22;17497;51.476;7.770;2022-08-23T00:38:16;20.20;99.90
30764;DHT22;17497;51.476;7.770;2022-08-23T00:41:01;20.20;99.90
30764;DHT22;17497;51.476;7.770;2022-08-23T00:43:34;20.20;99.90
30764;DHT22;17497;51.476;7.770;2022-08-23T00:46:41;20.20;99.90
30764;DHT22;17497;51.476;7.770;2022-08-23T00:49:29;20.10;99.90
30764;DHT22;17497;51.476;7.770;2022-08-23T00:52:10;20.10;99.90
30764;DHT22;17497;51.476;7.770;2022-08-23T00:54:39;20.10;99.90
30764;DHT22;17497;51.476;7.770;2022-08-23T00:57:11;20.10;99.90
30764;DHT22;17497;51.476;7.770;2022-08-23T00:59:39;20.00;99.90
30764;DHT22;17497;51.476;7.770;2022-08-23T01:02:06;20.00;99.90
30764;DHT22;17497;51.476;7.770;2022-08-23T01:04:36;20.00;99.90
30764;DHT22;17497;51.476;7.770;2022-08-23T01:07:12;20.00;99.90
30764;DHT22;17497;51.476;7.770;2022-08-23T01:09:41;20.00;99.90
30764;DHT22;17497;51.476;7.770;2022-08-23T01:12:19;20.00;99.90
30764;DHT22;17497;51.476;7.770;2022-08-23T01:15:00;20.00;99.90
30764;DHT22;17497;51.476;7.770;2022-08-23T01:17:39;20.00;99.90
30764;DHT22;17497;51.476;7.770;2022-08-23T01:20:13;20.00;99.90
30764;DHT22;17497;51.476;7.770;2022-08-23T01:22:47;20.00;99.90
30764;DHT22;17497;51.476;7.770;2022-08-23T01:25:18;20.00;99.90
30764;DHT22;17497;51.476;7.770;2022-08-23T01:27:47;20.10;99.90
30764;DHT22;17497;51.476;7.770;2022-08-23T01:30:17;20.20;99.90
30764;DHT22;17497;51.476;7.770;2022-08-23T01:32:51;20.20;99.90
30764;DHT22;17497;51.476;7.770;2022-08-23T01:35:20;20.30;99.90
30764;DHT22;17497;51.476;7.770;2022-08-23T01:37:54;20.40;99.90
30764;DHT22;17497;51.476;7.770;2022-08-23T01:40:20;20.30;99.90
30764;DHT22;17497;51.476;7.770;2022-08-23T01:42:47;20.30;99.90
30764;DHT22;17497;51.476;7.770;2022-08-23T01:45:15;20.40;99.90
30764;DHT22;17497;51.476;7.770;2022-08-23T01:47:42;20.40;99.90
30764;DHT22;17497;51.476;7.770;2022-08-23T01:50:11;20.40;99.90
30764;DHT22;17497;51.476;7.770;2022-08-23T01:52:39;20.30;99.90
30764;DHT22;17497;51.476;7.770;2022-08-23T01:55:13;20.30;99.90
30764;DHT22;17497;51.476;7.770;2022-08-23T01:57:40;20.30;99.90
30764;DHT22;17497;51.476;7.770;2022-08-23T02:00:12;20.20;99.90
30764;DHT22;17497;51.476;7.770;2022-08-23T02:02:39;20.20;99.90
30764;DHT22;17497;51.476;7.770;2022-08-23T02:05:07;20.20;99.90
30764;DHT22;17497;51.476;7.770;2022-08-23T02:07:34;20.10;99.90
30764;DHT22;17497;51.476;7.770;2022-08-23T02:10:01;20.10;99.90
30764;DHT22;17497;51.476;7.770;2022-08-23T02:12:28;20.00;99.90
30764;DHT22;17497;51.476;7.770;2022-08-23T02:14:55;20.10;99.90
30764;DHT22;17497;51.476;7.770;2022-08-23T02:17:22;20.10;99.90
30764;DHT22;17497;51.476;7.770;2022-08-23T02:19:49;20.00;99.90
30764;DHT22;17497;51.476;7.770;2022-08-23T02:22:15;20.00;99.90
30764;DHT22;17497;51.476;7.770;2022-08-23T02:24:45;19.90;99.90
30764;DHT22;17497;51.476;7.770;2022-08-23T02:27:13;19.80;99.90
30764;DHT22;17497;51.476;7.770;2022-08-23T02:29:43;19.80;99.90
30764;DHT22;17497;51.476;7.770;2022-08-23T02:32:13;19.70;99.90
30764;DHT22;17497;51.476;7.770;2022-08-23T02:34:41;19.60;99.90
30764;DHT22;17497;51.476;7.770;2022-08-23T02:37:26;19.60;99.90
30764;DHT22;17497;51.476;7.770;2022-08-23T02:39:52;19.40;99.90
30764;DHT22;17497;51.476;7.770;2022-08-23T02:42:19;19.40;99.90
30764;DHT22;17497;51.476;7.770;2022-08-23T02:44:46;19.40;99.90
30764;DHT22;17497;51.476;7.770;2022-08-23T02:47:14;19.30;99.90
30764;DHT22;17497;51.476;7.770;2022-08-23T02:49:40;19.30;99.90
30764;DHT22;17497;51.476;7.770;2022-08-23T02:52:07;19.20;99.90
30764;DHT22;17497;51.476;7.770;2022-08-23T02:54:34;19.20;99.90
30764;DHT22;17497;51.476;7.770;2022-08-23T02:57:02;19.10;99.90
30764;DHT22;17497;51.476;7.770;2022-08-23T02:59:29;19.10;99.90
30764;DHT22;17497;51.476;7.770;2022-08-23T03:01:55;19.10;99.90
30764;DHT22;17497;51.476;7.770;2022-08-23T03:04:22;19.10;99.90
30764;DHT22;17497;51.476;7.770;2022-08-23T03:06:49;19.10;99.90
30764;DHT22;17497;51.476;7.770;2022-08-23T03:09:16;19.00;99.90
30764;DHT22;17497;51.476;7.770;2022-08-23T03:11:45;19.00;99.90
30764;DHT22;17497;51.476;7.770;2022-08-23T03:14:12;19.00;99.90
30764;DHT22;17497;51.476;7.770;2022-08-23T03:16:40;18.90;99.90
30764;DHT22;17497;51.476;7.770;2022-08-23T03:19:07;18.90;99.90
30764;DHT22;17497;51.476;7.770;2022-08-23T03:21:34;18.90;99.90
30764;DHT22;17497;51.476;7.770;2022-08-23T03:24:01;18.90;99.90
30764;DHT22;17497;51.476;7.770;2022-08-23T03:26:35;18.90;99.90
30764;DHT22;17497;51.476;7.770;2022-08-23T03:29:02;18.90;99.90
30764;DHT22;17497;51.476;7.770;2022-08-23T03:31:29;19.00;99.90
30764;DHT22;17497;51.476;7.770;2022-08-23T03:33:57;19.10;99.90
30764;DHT22;17497;51.476;7.770;2022-08-23T03:36:24;19.20;99.90
30764;DHT22;17497;51.476;7.770;2022-08-23T03:38:54;19.30;99.90
30764;DHT22;17497;51.476;7.770;2022-08-23T03:41:21;19.40;99.90
30764;DHT22;17497;51.476;7.770;2022-08-23T03:43:48;19.60;99.90
30764;DHT22;17497;51.476;7.770;2022-08-23T03:46:14;19.60;99.90
30764;DHT22;17497;51.476;7.770;2022-08-23T03:48:50;19.60;99.90
30764;DHT22;17497;51.476;7.770;2022-08-23T03:51:18;19.60;99.90
30764;DHT22;17497;51.476;7.770;2022-08-23T03:53:46;19.50;99.90
30764;DHT22;17497;51.476;7.770;2022-08-23T03:56:28;19.50;99.90
30764;DHT22;17497;51.476;7.770;2022-08-23T03:58:56;19.40;99.90
30764;DHT22;17497;51.476;7.770;2022-08-23T04:01:23;19.30;99.90
30764;DHT22;17497;51.476;7.770;2022-08-23T04:03:54;19.20;99.90
30764;DHT22;17497;51.476;7.770;2022-08-23T04:06:26;19.10;99.90
30764;DHT22;17497;51.476;7.770;2022-08-23T04:08:53;19.00;99.90
30764;DHT22;17497;51.476;7.770;2022-08-23T04:11:22;18.90;99.90
30764;DHT22;17497;51.476;7.770;2022-08-23T04:13:48;18.80;99.90
30764;DHT22;17497;51.476;7.770;2022-08-23T04:16:15;18.70;99.90
30764;DHT22;17497;51.476;7.770;2022-08-23T04:18:44;18.60;99.90
30764;DHT22;17497;51.476;7.770;2022-08-23T04:21:18;18.60;99.90
30764;DHT22;17497;51.476;7.770;2022-08-23T04:23:48;18.50;99.90
30764;DHT22;17497;51.476;7.770;2022-08-23T04:26:15;18.50;99.90
30764;DHT22;17497;51.476;7.770;2022-08-23T04:28:42;18.40;99.90
30764;DHT22;17497;51.476;7.770;2022-08-23T04:31:08;18.30;99.90
30764;DHT22;17497;51.476;7.770;2022-08-23T04:33:35;18.30;99.90
30764;DHT22;17497;51.476;7.770;2022-08-23T04:36:06;18.30;99.90
30764;DHT22;17497;51.476;7.770;2022-08-23T04:38:33;18.20;99.90
30764;DHT22;17497;51.476;7.770;2022-08-23T04:41:00;18.20;99.90
30764;DHT22;17497;51.476;7.770;2022-08-23T04:43:45;18.20;99.90
30764;DHT22;17497;51.476;7.770;2022-08-23T04:46:14;18.20;99.90
30764;DHT22;17497;51.476;7.770;2022-08-23T04:48:42;18.20;99.90
30764;DHT22;17497;51.476;7.770;2022-08-23T04:51:09;18.10;99.90
30764;DHT22;17497;51.476;7.770;2022-08-23T04:53:37;18.10;99.90
30764;DHT22;17497;51.476;7.770;2022-08-23T04:56:05;18.10;99.90
30764;DHT22;17497;51.476;7.770;2022-08-23T04:58:33;18.10;99.90
30764;DHT22;17497;51.476;7.770;2022-08-23T05:01:00;18.00;99.90
30764;DHT22;17497;51.476;7.770;2022-08-23T05:03:28;18.00;99.90
30764;DHT22;17497;51.476;7.770;2022-08-23T05:05:55;18.00;99.90
30764;DHT22;17497;51.476;7.770;2022-08-23T05:08:24;18.00;99.90
30764;DHT22;17497;51.476;7.770;2022-08-23T05:10:51;17.90;99.90
30764;DHT22;17497;51.476;7.770;2022-08-23T05:13:17;18.00;99.90
30764;DHT22;17497;51.476;7.770;2022-08-23T05:15:45;17.90;99.90
30764;DHT22;17497;51.476;7.770;2022-08-23T05:18:12;17.90;99.90
30764;DHT22;17497;51.476;7.770;2022-08-23T05:20:38;17.90;99.90
30764;DHT22;17497;51.476;7.770;2022-08-23T05:23:05;17.90;99.90
30764;DHT22;17497;51.476;7.770;2022-08-23T05:25:32;17.90;99.90
30764;DHT22;17497;51.476;7.770;2022-08-23T05:28:30;17.80;99.90
30764;DHT22;17497;51.476;7.770;2022-08-23T05:31:01;17.80;99.90
30764;DHT22;17497;51.476;7.770;2022-08-23T05:33:30;17.80;99.90
30764;DHT22;17497;51.476;7.770;2022-08-23T05:35:57;17.90;99.90
30764;DHT22;17497;51.476;7.770;2022-08-23T05:38:25;17.90;99.90
30764;DHT22;17497;51.476;7.770;2022-08-23T05:40:53;17.90;99.90
30764;DHT22;17497;51.476;7.770;2022-08-23T05:43:20;17.90;99.90
30764;DHT22;17497;51.476;7.770;2022-08-23T05:45:47;17.90;99.90
30764;DHT22;17497;51.476;7.770;2022-08-23T05:48:24;18.00;99.90
30764;DHT22;17497;51.476;7.770;2022-08-23T05:50:50;18.00;99.90
30764;DHT22;17497;51.476;7.770;2022-08-23T05:53:17;18.10;99.90
30764;DHT22;17497;51.476;7.770;2022-08-23T05:55:44;18.10;99.90
30764;DHT22;17497;51.476;7.770;2022-08-23T05:58:10;18.20;99.90
30764;DHT22;17497;51.476;7.770;2022-08-23T06:00:37;18.30;99.90
30764;DHT22;17497;51.476;7.770;2022-08-23T06:03:06;18.30;99.90
30764;DHT22;17497;51.476;7.770;2022-08-23T06:05:37;18.40;99.90
30764;DHT22;17497;51.476;7.770;2022-08-23T06:08:04;18.40;99.90
30764;DHT22;17497;51.476;7.770;2022-08-23T06:10:31;18.50;99.90
30764;DHT22;17497;51.476;7.770;2022-08-23T06:13:01;18.50;99.90
30764;DHT22;17497;51.476;7.770;2022-08-23T06:15:29;18.60;99.90
30764;DHT22;17497;51.476;7.770;2022-08-23T06:17:56;18.60;99.90
30764;DHT22;17497;51.476;7.770;2022-08-23T06:20:23;18.80;99.90
30764;DHT22;17497;51.476;7.770;2022-08-23T06:22:49;19.00;99.90
30764;DHT22;17497;51.476;7.770;2022-08-23T06:25:16;19.20;99.90
30764;DHT22;17497;51.476;7.770;2022-08-23T06:27:43;19.30;99.90
30764;DHT22;17497;51.476;7.770;2022-08-23T06:30:10;19.40;99.90
30764;DHT22;17497;51.476;7.770;2022-08-23T06:32:38;19.40;99.90
30764;DHT22;17497;51.476;7.770;2022-08-23T06:35:06;19.60;99.90
30764;DHT22;17497;51.476;7.770;2022-08-23T06:37:53;19.70;99.90
30764;DHT22;17497;51.476;7.770;2022-08-23T06:40:22;19.70;99.90
30764;DHT22;17497;51.476;7.770;2022-08-23T06:42:49;19.90;99.90
30764;DHT22;17497;51.476;7.770;2022-08-23T06:45:15;20.00;99.90
30764;DHT22;17497;51.476;7.770;2022-08-23T06:47:42;20.10;99.90
30764;DHT22;17497;51.476;7.770;2022-08-23T06:50:09;20.20;99.90
30764;DHT22;17497;51.476;7.770;2022-08-23T06:52:36;20.30;99.90
30764;DHT22;17497;51.476;7.770;2022-08-23T06:55:03;20.40;99.90
30764;DHT22;17497;51.476;7.770;2022-08-23T06:57:29;20.40;99.90
30764;DHT22;17497;51.476;7.770;2022-08-23T06:59:57;20.40;99.90
30764;DHT22;17497;51.476;7.770;2022-08-23T07:02:24;20.40;99.90
30764;DHT22;17497;51.476;7.770;2022-08-23T07:04:51;20.50;99.90
30764;DHT22;17497;51.476;7.770;2022-08-23T07:07:21;20.60;99.90
30764;DHT22;17497;51.476;7.770;2022-08-23T07:09:48;20.60;99.90
30764;DHT22;17497;51.476;7.770;2022-08-23T07:12:14;20.60;99.90
30764;DHT22;17497;51.476;7.770;2022-08-23T07:14:42;20.60;99.90
30764;DHT22;17497;51.476;7.770;2022-08-23T07:17:09;20.70;99.90
30764;DHT22;17497;51.476;7.770;2022-08-23T07:19:36;20.70;99.90
30764;DHT22;17497;51.476;7.770;2022-08-23T07:22:04;20.70;99.90
30764;DHT22;17497;51.476;7.770;2022-08-23T07:24:31;20.70;99.90
30764;DHT22;17497;51.476;7.770;2022-08-23T07:27:00;20.60;99.90
30764;DHT22;17497;51.476;7.770;2022-08-23T07:29:32;20.70;99.90
30764;DHT22;17497;51.476;7.770;2022-08-23T07:32:00;20.70;99.90
30764;DHT22;17497;51.476;7.770;2022-08-23T07:34:27;20.70;99.90
30764;DHT22;17497;51.476;7.770;2022-08-23T07:36:54;20.70;99.90
30764;DHT22;17497;51.476;7.770;2022-08-23T07:39:22;20.80;99.90
30764;DHT22;17497;51.476;7.770;2022-08-23T07:41:49;20.80;99.90
30764;DHT22;17497;51.476;7.770;2022-08-23T07:44:16;20.90;99.90
30764;DHT22;17497;51.476;7.770;2022-08-23T07:46:44;21.00;99.90
30764;DHT22;17497;51.476;7.770;2022-08-23T07:49:12;21.10;99.90
30764;DHT22;17497;51.476;7.770;2022-08-23T07:51:40;21.30;99.90
30764;DHT22;17497;51.476;7.770;2022-08-23T07:54:09;21.40;99.90
30764;DHT22;17497;51.476;7.770;2022-08-23T07:56:36;21.40;99.90
30764;DHT22;17497;51.476;7.770;2022-08-23T07:59:04;21.40;99.90
30764;DHT22;17497;51.476;7.770;2022-08-23T08:01:31;21.60;99.90
30764;DHT22;17497;51.476;7.770;2022-08-23T08:04:00;21.70;99.90
30764;DHT22;17497;51.476;7.770;2022-08-23T08:06:33;21.90;99.90
30764;DHT22;17497;51.476;7.770;2022-08-23T08:09:01;22.10;99.90
30764;DHT22;17497;51.476;7.770;2022-08-23T08:11:30;22.20;99.90
30764;DHT22;17497;51.476;7.770;2022-08-23T08:14:05;22.30;99.90
30764;DHT22;17497;51.476;7.770;2022-08-23T08:16:39;22.40;99.90
30764;DHT22;17497;51.476;7.770;2022-08-23T08:19:09;22.50;99.90
30764;DHT22;17497;51.476;7.770;2022-08-23T08:21:36;22.50;99.90
30764;DHT22;17497;51.476;7.770;2022-08-23T08:24:09;22.70;99.90
30764;DHT22;17497;51.476;7.770;2022-08-23T08:26:36;22.80;99.90
30764;DHT22;17497;51.476;7.770;2022-08-23T08:29:04;22.90;99.90
30764;DHT22;17497;51.476;7.770;2022-08-23T08:31:31;23.00;99.90
30764;DHT22;17497;51.476;7.770;2022-08-23T08:33:59;23.10;99.90
30764;DHT22;17497;51.476;7.770;2022-08-23T08:38:58;23.10;99.90
30764;DHT22;17497;51.476;7.770;2022-08-23T08:46:57;23.00;99.90
30764;DHT22;17497;51.476;7.770;2022-08-23T08:49:51;23.10;99.90
30764;DHT22;17497;51.476;7.770;2022-08-23T08:52:46;23.10;99.90
30764;DHT22;17497;51.476;7.770;2022-08-23T08:55:29;23.20;99.90
30764;DHT22;17497;51.476;7.770;2022-08-23T08:57:57;23.20;99.90
30764;DHT22;17497;51.476;7.770;2022-08-23T09:00:30;23.30;99.90
30764;DHT22;17497;51.476;7.770;2022-08-23T09:17:20;23.60;99.90
30764;DHT22;17497;51.476;7.770;2022-08-23T09:19:51;23.60;99.90
30764;DHT22;17497;51.476;7.770;2022-08-23T09:22:34;23.70;99.90
30764;DHT22;17497;51.476;7.770;2022-08-23T09:25:07;23.90;99.90
30764;DHT22;17497;51.476;7.770;2022-08-23T09:27:40;23.90;99.90
30764;DHT22;17497;51.476;7.770;2022-08-23T09:30:08;24.00;99.90
30764;DHT22;17497;51.476;7.770;2022-08-23T09:32:38;24.20;99.00
30764;DHT22;17497;51.476;7.770;2022-08-23T09:35:21;24.40;98.50
30764;DHT22;17497;51.476;7.770;2022-08-23T09:43:09;25.00;99.90
30764;DHT22;17497;51.476;7.770;2022-08-23T09:46:02;25.40;98.20
30764;DHT22;17497;51.476;7.770;2022-08-23T09:48:44;25.70;98.40
30764;DHT22;17497;51.476;7.770;2022-08-23T09:51:21;25.90;96.40
30764;DHT22;17497;51.476;7.770;2022-08-23T09:54:21;25.80;94.80
30764;DHT22;17497;51.476;7.770;2022-08-23T09:57:00;26.00;97.10
30764;DHT22;17497;51.476;7.770;2022-08-23T09:59:40;26.30;97.50
30764;DHT22;17497;51.476;7.770;2022-08-23T10:05:03;27.30;93.20
30764;DHT22;17497;51.476;7.770;2022-08-23T10:07:44;27.50;93.20
30764;DHT22;17497;51.476;7.770;2022-08-23T10:10:37;27.80;92.80
30764;DHT22;17497;51.476;7.770;2022-08-23T10:13:13;27.90;91.00
30764;DHT22;17497;51.476;7.770;2022-08-23T10:30:05;29.50;86.10
30764;DHT22;17497;51.476;7.770;2022-08-23T10:38:31;30.10;85.70
30764;DHT22;17497;51.476;7.770;2022-08-23T10:41:27;30.50;82.40
30764;DHT22;17497;51.476;7.770;2022-08-23T10:44:03;30.90;79.30
30764;DHT22;17497;51.476;7.770;2022-08-23T10:46:40;31.30;76.40
30764;DHT22;17497;51.476;7.770;2022-08-23T10:49:11;31.50;80.30
30764;DHT22;17497;51.476;7.770;2022-08-23T10:51:42;31.50;77.40
30764;DHT22;17497;51.476;7.770;2022-08-23T10:54:15;31.70;73.00
30764;DHT22;17497;51.476;7.770;2022-08-23T10:56:44;30.70;71.90
30764;DHT22;17497;51.476;7.770;2022-08-23T10:59:20;29.80;73.50
30764;DHT22;17497;51.476;7.770;2022-08-23T11:07:18;29.20;75.80
30764;DHT22;17497;51.476;7.770;2022-08-23T11:09:52;29.80;78.60
30764;DHT22;17497;51.476;7.770;2022-08-23T11:12:23;29.30;75.10
30764;DHT22;17497;51.476;7.770;2022-08-23T11:17:29;28.90;75.70
30764;DHT22;17497;51.476;7.770;2022-08-23T11:20:05;28.90;77.80
30764;DHT22;17497;51.476;7.770;2022-08-23T11:27:49;30.40;77.50
30764;DHT22;17497;51.476;7.770;2022-08-23T11:30:49;31.30;73.30
30764;DHT22;17497;51.476;7.770;2022-08-23T11:36:20;31.90;71.10
30764;DHT22;17497;51.476;7.770;2022-08-23T11:41:27;32.00;66.90
30764;DHT22;17497;51.476;7.770;2022-08-23T11:49:14;34.40;62.50
30764;DHT22;17497;51.476;7.770;2022-08-23T11:57:56;35.60;56.70
30764;DHT22;17497;51.476;7.770;2022-08-23T12:00:52;35.90;54.30
30764;DHT22;17497;51.476;7.770;2022-08-23T12:03:28;35.40;53.50
30764;DHT22;17497;51.476;7.770;2022-08-23T12:11:17;30.60;61.00
30764;DHT22;17497;51.476;7.770;2022-08-23T12:21:21;31.10;60.30
30764;DHT22;17497;51.476;7.770;2022-08-23T12:23:58;30.70;59.30
30764;DHT22;17497;51.476;7.770;2022-08-23T12:29:21;30.40;63.90
30764;DHT22;17497;51.476;7.770;2022-08-23T12:32:16;30.50;62.10
30764;DHT22;17497;51.476;7.770;2022-08-23T12:35:24;31.20;65.80
30764;DHT22;17497;51.476;7.770;2022-08-23T12:38:47;32.00;60.10
30764;DHT22;17497;51.476;7.770;2022-08-23T12:41:15;32.90;57.10
30764;DHT22;17497;51.476;7.770;2022-08-23T12:44:03;33.70;56.40
30764;DHT22;17497;51.476;7.770;2022-08-23T12:46:41;34.10;55.80
30764;DHT22;17497;51.476;7.770;2022-08-23T12:49:21;33.20;54.80
30764;DHT22;17497;51.476;7.770;2022-08-23T12:51:49;32.20;55.50
30764;DHT22;17497;51.476;7.770;2022-08-23T12:54:20;32.00;56.50
30764;DHT22;17497;51.476;7.770;2022-08-23T12:56:50;31.20;57.30
30764;DHT22;17497;51.476;7.770;2022-08-23T13:02:06;31.10;58.50
30764;DHT22;17497;51.476;7.770;2022-08-23T13:04:36;31.50;58.00
30764;DHT22;17497;51.476;7.770;2022-08-23T13:07:07;31.50;56.40
30764;DHT22;17497;51.476;7.770;2022-08-23T13:09:39;31.00;57.50
30764;DHT22;17497;51.476;7.770;2022-08-23T13:12:07;30.90;57.50
30764;DHT22;17497;51.476;7.770;2022-08-23T13:19:39;30.30;60.10
30764;DHT22;17497;51.476;7.770;2022-08-23T13:24:57;29.70;61.10
30764;DHT22;17497;51.476;7.770;2022-08-23T13:32:44;29.90;63.50
30764;DHT22;17497;51.476;7.770;2022-08-23T13:35:24;30.10;61.10
30764;DHT22;17497;51.476;7.770;2022-08-23T13:37:54;30.20;58.40
30764;DHT22;17497;51.476;7.770;2022-08-23T13:40:26;30.40;61.50
30764;DHT22;17497;51.476;7.770;2022-08-23T13:43:09;30.70;58.90
30764;DHT22;17497;51.476;7.770;2022-08-23T13:45:50;30.60;57.50
30764;DHT22;17497;51.476;7.770;2022-08-23T13:48:43;30.70;58.20
30764;DHT22;17497;51.476;7.770;2022-08-23T13:51:16;30.60;59.90
30764;DHT22;17497;51.476;7.770;2022-08-23T13:53:43;30.40;60.00
30764;DHT22;17497;51.476;7.770;2022-08-23T13:58:41;30.10;59.00
30764;DHT22;17497;51.476;7.770;2022-08-23T14:01:16;29.70;58.60
30764;DHT22;17497;51.476;7.770;2022-08-23T14:03:45;29.70;58.30
30764;DHT22;17497;51.476;7.770;2022-08-23T14:06:11;29.80;59.50
30764;DHT22;17497;51.476;7.770;2022-08-23T14:08:38;29.70;58.60
30764;DHT22;17497;51.476;7.770;2022-08-23T14:11:05;29.60;60.00
30764;DHT22;17497;51.476;7.770;2022-08-23T14:13:32;29.60;59.80
30764;DHT22;17497;51.476;7.770;2022-08-23T14:16:03;29.70;62.40
30764;DHT22;17497;51.476;7.770;2022-08-23T14:18:50;29.80;59.50
30764;DHT22;17497;51.476;7.770;2022-08-23T14:21:37;29.90;59.30
30764;DHT22;17497;51.476;7.770;2022-08-23T14:24:04;30.00;59.80
30764;DHT22;17497;51.476;7.770;2022-08-23T14:26:31;30.20;57.70
30764;DHT22;17497;51.476;7.770;2022-08-23T14:28:57;30.40;58.70
30764;DHT22;17497;51.476;7.770;2022-08-23T14:31:24;30.80;57.60
30764;DHT22;17497;51.476;7.770;2022-08-23T14:33:51;31.10;58.90
30764;DHT22;17497;51.476;7.770;2022-08-23T14:36:17;31.10;56.80
30764;DHT22;17497;51.476;7.770;2022-08-23T14:38:46;31.40;58.60
30764;DHT22;17497;51.476;7.770;2022-08-23T14:41:21;31.70;56.50
30764;DHT22;17497;51.476;7.770;2022-08-23T14:43:49;32.20;55.80
30764;DHT22;17497;51.476;7.770;2022-08-23T14:46:16;32.30;54.50
30764;DHT22;17497;51.476;7.770;2022-08-23T14:48:43;32.20;54.40
30764;DHT22;17497;51.476;7.770;2022-08-23T14:53:50;31.60;55.30
30764;DHT22;17497;51.476;7.770;2022-08-23T14:56:17;31.30;55.10
30764;DHT22;17497;51.476;7.770;2022-08-23T14:58:48;31.00;55.40
30764;DHT22;17497;51.476;7.770;2022-08-23T15:01:15;30.60;55.70
30764;DHT22;17497;51.476;7.770;2022-08-23T15:03:43;30.30;56.20
30764;DHT22;17497;51.476;7.770;2022-08-23T15:06:11;30.00;58.00
30764;DHT22;17497;51.476;7.770;2022-08-23T15:08:39;29.80;60.50
30764;DHT22;17497;51.476;7.770;2022-08-23T15:11:07;29.60;60.00
30764;DHT22;17497;51.476;7.770;2022-08-23T15:13:54;29.40;62.10
30764;DHT22;17497;51.476;7.770;2022-08-23T15:16:25;29.30;62.80
30764;DHT22;17497;51.476;7.770;2022-08-23T15:18:52;29.10;62.90
30764;DHT22;17497;51.476;7.770;2022-08-23T15:21:20;29.00;63.00
30764;DHT22;17497;51.476;7.770;2022-08-23T15:23:47;28.90;62.40
30764;DHT22;17497;51.476;7.770;2022-08-23T15:26:17;28.80;64.10
30764;DHT22;17497;51.476;7.770;2022-08-23T15:28:44;28.90;66.80
30764;DHT22;17497;51.476;7.770;2022-08-23T15:31:11;28.90;65.60
30764;DHT22;17497;51.476;7.770;2022-08-23T15:33:39;29.00;65.50
30764;DHT22;17497;51.476;7.770;2022-08-23T15:36:06;29.00;62.80
30764;DHT22;17497;51.476;7.770;2022-08-23T15:38:34;29.10;62.20
30764;DHT22;17497;51.476;7.770;2022-08-23T15:41:03;29.10;63.70
30764;DHT22;17497;51.476;7.770;2022-08-23T15:43:30;29.00;64.30
30764;DHT22;17497;51.476;7.770;2022-08-23T15:46:03;29.00;64.40
30764;DHT22;17497;51.476;7.770;2022-08-23T15:48:45;28.90;63.50
30764;DHT22;17497;51.476;7.770;2022-08-23T15:51:15;28.90;65.00
30764;DHT22;17497;51.476;7.770;2022-08-23T15:53:43;29.00;65.60
30764;DHT22;17497;51.476;7.770;2022-08-23T15:56:14;28.90;65.40
30764;DHT22;17497;51.476;7.770;2022-08-23T15:58:41;29.00;65.40
30764;DHT22;17497;51.476;7.770;2022-08-23T16:01:08;29.00;65.50
30764;DHT22;17497;51.476;7.770;2022-08-23T16:03:36;29.00;64.60
30764;DHT22;17497;51.476;7.770;2022-08-23T16:06:04;28.90;65.30
30764;DHT22;17497;51.476;7.770;2022-08-23T16:08:33;29.00;65.20
30764;DHT22;17497;51.476;7.770;2022-08-23T16:11:01;29.20;66.20
30764;DHT22;17497;51.476;7.770;2022-08-23T16:13:34;29.50;64.30
30764;DHT22;17497;51.476;7.770;2022-08-23T16:16:01;29.50;65.50
30764;DHT22;17497;51.476;7.770;2022-08-23T16:18:28;29.40;65.40
30764;DHT22;17497;51.476;7.770;2022-08-23T16:20:55;29.20;65.40
30764;DHT22;17497;51.476;7.770;2022-08-23T16:23:21;29.10;64.90
30764;DHT22;17497;51.476;7.770;2022-08-23T16:25:48;28.90;67.50
30764;DHT22;17497;51.476;7.770;2022-08-23T16:28:15;28.70;65.20
30764;DHT22;17497;51.476;7.770;2022-08-23T16:30:42;28.60;66.00
30764;DHT22;17497;51.476;7.770;2022-08-23T16:33:09;28.50;65.60
30764;DHT22;17497;51.476;7.770;2022-08-23T16:35:36;28.40;66.00
30764;DHT22;17497;51.476;7.770;2022-08-23T16:38:03;28.40;66.60
30764;DHT22;17497;51.476;7.770;2022-08-23T16:40:29;28.30;67.00
30764;DHT22;17497;51.476;7.770;2022-08-23T16:42:56;28.30;67.80
30764;DHT22;17497;51.476;7.770;2022-08-23T16:45:23;28.20;68.10
30764;DHT22;17497;51.476;7.770;2022-08-23T16:47:51;28.10;68.70
30764;DHT22;17497;51.476;7.770;2022-08-23T16:50:17;28.10;71.20
30764;DHT22;17497;51.476;7.770;2022-08-23T16:52:44;28.00;70.00
30764;DHT22;17497;51.476;7.770;2022-08-23T16:55:11;27.90;70.50
30764;DHT22;17497;51.476;7.770;2022-08-23T16:57:38;27.90;72.80
30764;DHT22;17497;51.476;7.770;2022-08-23T17:00:06;27.90;73.10
30764;DHT22;17497;51.476;7.770;2022-08-23T17:02:36;27.90;73.00
30764;DHT22;17497;51.476;7.770;2022-08-23T17:05:03;27.80;72.70
30764;DHT22;17497;51.476;7.770;2022-08-23T17:07:30;27.70;72.50
30764;DHT22;17497;51.476;7.770;2022-08-23T17:09:57;27.60;74.10
30764;DHT22;17497;51.476;7.770;2022-08-23T17:12:23;27.60;74.50
30764;DHT22;17497;51.476;7.770;2022-08-23T17:14:51;27.50;74.70
30764;DHT22;17497;51.476;7.770;2022-08-23T17:17:18;27.40;74.70
30764;DHT22;17497;51.476;7.770;2022-08-23T17:19:45;27.40;73.80
30764;DHT22;17497;51.476;7.770;2022-08-23T17:22:11;27.40;74.30
30764;DHT22;17497;51.476;7.770;2022-08-23T17:24:38;27.40;75.10
30764;DHT22;17497;51.476;7.770;2022-08-23T17:27:06;27.40;75.00
30764;DHT22;17497;51.476;7.770;2022-08-23T17:29:33;27.30;74.50
30764;DHT22;17497;51.476;7.770;2022-08-23T17:32:03;27.30;75.40
30764;DHT22;17497;51.476;7.770;2022-08-23T17:34:29;27.30;76.40
30764;DHT22;17497;51.476;7.770;2022-08-23T17:36:56;27.20;75.50
30764;DHT22;17497;51.476;7.770;2022-08-23T17:39:25;27.20;76.70
30764;DHT22;17497;51.476;7.770;2022-08-23T17:41:55;27.20;77.20
30764;DHT22;17497;51.476;7.770;2022-08-23T17:44:23;27.10;77.90
30764;DHT22;17497;51.476;7.770;2022-08-23T17:46:50;27.10;77.20
30764;DHT22;17497;51.476;7.770;2022-08-23T17:49:17;27.00;76.40
30764;DHT22;17497;51.476;7.770;2022-08-23T17:51:44;27.00;76.90
30764;DHT22;17497;51.476;7.770;2022-08-23T17:54:11;27.00;77.40